Time;durP1;ratioP1;P1;durP2;ratioP2;P2;SDS_P1;SDS_P2;PMS_P1;PMS_P2;Temp;Humidity;BMP_temperature;BMP_pressure;BME280_temperature;BME280_humidity;BME280_pressure;Samples;Min_cycle;Max_cycle;Signal;HPM_P1;HPM_P2
2023/08/11 00:00:13;;;;;;;2.63;2.30;;;19.60;99.90;;;;;;7389649;19;20241;-76
2023/08/11 00:02:39;;;;;;;3.90;2.92;;;19.50;99.90;;;;;;7389206;19;20142;-76
2023/08/11 00:05:05;;;;;;;3.00;2.30;;;19.30;99.90;;;;;;7388253;19;20150;-76
2023/08/11 00:07:31;;;;;;;4.90;2.13;;;19.20;99.90;;;;;;7390109;19;20226;-78
2023/08/11 00:09:57;;;;;;;1.98;1.77;;;19.30;99.90;;;;;;7390289;19;20861;-76
2023/08/11 00:12:23;;;;;;;3.92;1.85;;;19.30;99.90;;;;;;7389450;19;20633;-77
2023/08/11 00:14:48;;;;;;;3.22;2.08;;;19.40;99.90;;;;;;7392121;19;20235;-77
2023/08/11 00:17:14;;;;;;;3.17;2.50;;;19.50;99.90;;;;;;7390372;19;20506;-76
2023/08/11 00:19:41;;;;;;;3.92;2.40;;;19.40;99.90;;;;;;7389953;19;20166;-77
2023/08/11 00:22:06;;;;;;;3.05;2.47;;;19.40;99.90;;;;;;7386766;19;20179;-77
2023/08/11 00:24:33;;;;;;;3.97;2.70;;;19.50;99.90;;;;;;7390682;19;20155;-76
2023/08/11 00:27:01;;;;;;;3.10;2.60;;;19.60;99.90;;;;;;7388457;19;20142;-77
2023/08/11 00:29:27;;;;;;;5.13;2.42;;;19.80;99.90;;;;;;7390469;19;20158;-77
2023/08/11 00:31:53;;;;;;;3.08;2.15;;;19.50;99.90;;;;;;7388074;19;20141;-76
2023/08/11 00:34:19;;;;;;;4.93;3.08;;;19.40;99.90;;;;;;7391244;19;20142;-76
2023/08/11 00:36:45;;;;;;;3.03;2.70;;;19.40;99.90;;;;;;7391980;19;20577;-76
2023/08/11 00:39:12;;;;;;;4.72;2.78;;;19.30;99.90;;;;;;7388827;19;20162;-76
2023/08/11 00:41:38;;;;;;;2.90;2.50;;;19.20;99.90;;;;;;7386721;19;20635;-76
2023/08/11 00:44:04;;;;;;;3.17;2.55;;;19.40;99.90;;;;;;7388503;19;20143;-76
2023/08/11 00:46:30;;;;;;;3.75;2.40;;;19.40;99.90;;;;;;7389780;19;20138;-76
2023/08/11 00:48:56;;;;;;;3.40;2.50;;;19.30;99.90;;;;;;7388568;19;20141;-77
2023/08/11 00:51:23;;;;;;;3.88;2.53;;;19.10;99.90;;;;;;7387851;19;20225;-76
2023/08/11 00:53:50;;;;;;;4.63;2.80;;;19.20;99.90;;;;;;7391123;19;20504;-77
2023/08/11 00:56:22;;;;;;;4.43;2.75;;;19.10;99.90;;;;;;7389263;19;20642;-76
2023/08/11 00:58:49;;;;;;;4.25;2.70;;;18.90;99.90;;;;;;7386995;19;20142;-77
2023/08/11 01:01:15;;;;;;;2.75;1.90;;;19.20;99.90;;;;;;7386914;19;20154;-77
2023/08/11 01:03:43;;;;;;;2.83;2.20;;;19.30;99.90;;;;;;7383247;19;20537;-76
2023/08/11 01:06:21;;;;;;;3.90;2.15;;;19.00;99.90;;;;;;7388686;19;20135;-77
2023/08/11 01:08:56;;;;;;;3.38;2.08;;;18.80;99.90;;;;;;7390355;19;20134;-76
2023/08/11 01:11:38;;;;;;;3.40;1.92;;;18.60;99.90;;;;;;7389215;19;20138;-78
2023/08/11 01:14:22;;;;;;;2.72;2.03;;;18.70;99.90;;;;;;7387973;19;20133;-75
2023/08/11 01:16:50;;;;;;;5.25;2.10;;;18.60;99.90;;;;;;7390366;19;20134;-77
2023/08/11 01:19:32;;;;;;;2.97;2.50;;;18.50;99.90;;;;;;7388266;19;20955;-76
2023/08/11 01:22:00;;;;;;;3.05;2.53;;;18.60;99.90;;;;;;7388484;19;20134;-76
2023/08/11 01:24:28;;;;;;;3.38;2.30;;;18.70;99.90;;;;;;7390542;19;20135;-77
2023/08/11 01:26:54;;;;;;;3.83;2.65;;;18.90;99.90;;;;;;7388462;19;20151;-76
2023/08/11 01:29:19;;;;;;;5.43;2.92;;;19.10;99.90;;;;;;7388429;19;20626;-76
2023/08/11 01:31:45;;;;;;;3.38;2.20;;;19.20;99.90;;;;;;7388848;19;20147;-76
2023/08/11 01:34:11;;;;;;;3.40;2.33;;;19.10;99.90;;;;;;7387483;19;20218;-75
2023/08/11 01:36:40;;;;;;;3.78;2.35;;;18.90;99.90;;;;;;7388033;19;20138;-77
2023/08/11 01:39:06;;;;;;;2.88;2.25;;;19.00;99.90;;;;;;7387783;19;20142;-76
2023/08/11 01:41:32;;;;;;;2.72;2.20;;;18.90;99.90;;;;;;7388919;19;20152;-78
2023/08/11 01:43:58;;;;;;;3.20;2.20;;;18.80;99.90;;;;;;7389195;19;20143;-75
2023/08/11 01:46:27;;;;;;;2.80;2.47;;;19.00;99.90;;;;;;7389460;19;20968;-75
2023/08/11 01:48:55;;;;;;;2.47;2.00;;;18.60;99.90;;;;;;7386937;19;20138;-77
2023/08/11 01:51:23;;;;;;;3.22;1.80;;;18.70;99.90;;;;;;7387556;19;20137;-76
2023/08/11 01:53:50;;;;;;;4.07;2.53;;;18.60;99.90;;;;;;7386140;19;20153;-77
2023/08/11 01:56:17;;;;;;;5.15;2.60;;;18.30;99.90;;;;;;7387441;19;20138;-76
2023/08/11 01:58:43;;;;;;;2.67;2.05;;;18.20;99.90;;;;;;7388113;19;20158;-76
2023/08/11 02:01:09;;;;;;;2.47;2.28;;;18.00;99.90;;;;;;7386381;19;20134;-76
2023/08/11 02:03:35;;;;;;;2.67;1.90;;;18.00;99.90;;;;;;7386698;19;20249;-77
2023/08/11 02:06:01;;;;;;;2.95;2.30;;;18.20;99.90;;;;;;7386412;19;20180;-77
2023/08/11 02:08:27;;;;;;;3.38;2.25;;;18.20;99.90;;;;;;7387421;19;20598;-77
2023/08/11 02:10:53;;;;;;;3.28;2.50;;;18.30;99.90;;;;;;7391431;19;20508;-76
2023/08/11 02:13:19;;;;;;;3.25;2.60;;;18.40;99.90;;;;;;7394059;19;20135;-77
2023/08/11 02:15:45;;;;;;;5.10;2.53;;;18.40;99.90;;;;;;7395495;19;22169;-76
2023/08/11 02:18:11;;;;;;;4.70;3.10;;;18.00;99.90;;;;;;7394656;19;20131;-76
2023/08/11 02:20:36;;;;;;;4.25;3.03;;;18.00;99.90;;;;;;7391700;19;20685;-76
2023/08/11 02:23:02;;;;;;;4.65;2.75;;;18.10;99.90;;;;;;7393028;19;20131;-75
2023/08/11 02:25:28;;;;;;;3.25;2.70;;;18.00;99.90;;;;;;7392343;19;20142;-75
2023/08/11 02:27:54;;;;;;;3.72;2.90;;;18.10;99.90;;;;;;7392365;19;20141;-76
2023/08/11 02:30:21;;;;;;;3.00;2.42;;;18.40;99.90;;;;;;7394022;19;20131;-77
2023/08/11 02:32:47;;;;;;;3.25;2.45;;;18.50;99.90;;;;;;7395626;19;20123;-77
2023/08/11 02:35:14;;;;;;;3.13;2.50;;;18.40;99.90;;;;;;7392536;19;20206;-77
2023/08/11 02:37:40;;;;;;;3.00;2.30;;;18.30;99.90;;;;;;7393742;19;20135;-76
2023/08/11 02:40:08;;;;;;;7.18;1.92;;;18.00;99.90;;;;;;7393075;19;20615;-77
2023/08/11 02:42:37;;;;;;;2.45;2.22;;;18.10;99.90;;;;;;7392304;19;20134;-77
2023/08/11 02:45:04;;;;;;;2.83;2.25;;;18.30;99.90;;;;;;7393902;19;20589;-77
2023/08/11 02:47:30;;;;;;;2.70;2.40;;;18.30;99.90;;;;;;7393963;19;20495;-76
2023/08/11 02:49:56;;;;;;;3.15;2.28;;;18.30;99.90;;;;;;7392612;19;20171;-76
2023/08/11 02:52:22;;;;;;;2.47;1.90;;;18.40;99.90;;;;;;7390117;19;20547;-76
2023/08/11 02:54:47;;;;;;;2.70;1.90;;;18.40;99.90;;;;;;7392453;19;20582;-76
2023/08/11 02:57:13;;;;;;;2.42;2.00;;;18.10;99.90;;;;;;7392056;19;20165;-78
2023/08/11 02:59:39;;;;;;;4.32;2.42;;;18.10;99.90;;;;;;7391683;19;20168;-76
2023/08/11 03:02:07;;;;;;;3.88;2.78;;;18.30;99.90;;;;;;7390825;19;20163;-76
2023/08/11 03:04:36;;;;;;;4.20;2.28;;;18.20;99.90;;;;;;7389526;19;20183;-76
2023/08/11 03:07:05;;;;;;;3.72;2.50;;;18.30;99.90;;;;;;7390405;19;20145;-77
2023/08/11 03:09:31;;;;;;;2.72;2.35;;;18.10;99.90;;;;;;7389169;19;20452;-77
2023/08/11 03:11:57;;;;;;;3.00;2.50;;;18.10;99.90;;;;;;7390401;19;20179;-76
2023/08/11 03:14:23;;;;;;;3.80;2.50;;;17.90;99.90;;;;;;7390856;19;20755;-76
2023/08/11 03:16:49;;;;;;;3.65;2.60;;;17.90;99.90;;;;;;7390501;19;20198;-76
2023/08/11 03:19:14;;;;;;;3.17;2.30;;;18.10;99.90;;;;;;7389470;19;20949;-76
2023/08/11 03:21:40;;;;;;;6.20;2.80;;;18.20;99.90;;;;;;7388609;19;20579;-77
2023/08/11 03:24:06;;;;;;;3.35;2.78;;;17.90;99.90;;;;;;7391373;19;20198;-77
2023/08/11 03:26:32;;;;;;;4.35;2.63;;;17.80;99.90;;;;;;7390858;19;20145;-76
2023/08/11 03:28:58;;;;;;;4.15;2.80;;;18.00;99.90;;;;;;7390931;19;20559;-75
2023/08/11 03:31:24;;;;;;;5.90;2.95;;;18.00;99.90;;;;;;7391922;19;20141;-76
2023/08/11 03:33:49;;;;;;;3.90;2.72;;;18.20;99.90;;;;;;7392118;19;20150;-77
2023/08/11 03:36:15;;;;;;;4.50;3.00;;;18.30;99.90;;;;;;7389559;19;20135;-76
2023/08/11 03:38:41;;;;;;;2.47;2.20;;;18.40;99.90;;;;;;7392006;19;20135;-77
2023/08/11 03:41:07;;;;;;;3.45;2.65;;;18.30;99.90;;;;;;7390094;19;20179;-76
2023/08/11 03:43:32;;;;;;;5.18;2.35;;;18.30;99.90;;;;;;7390855;19;20131;-76
2023/08/11 03:45:58;;;;;;;4.28;2.40;;;18.30;99.90;;;;;;7391715;19;20174;-76
2023/08/11 03:48:24;;;;;;;2.83;2.22;;;18.20;99.90;;;;;;7392052;19;20227;-78
2023/08/11 03:50:49;;;;;;;3.95;2.63;;;18.10;99.90;;;;;;7393635;19;20135;-76
2023/08/11 03:53:15;;;;;;;2.65;2.20;;;18.00;99.90;;;;;;7392298;19;20135;-76
2023/08/11 03:55:46;;;;;;;4.10;2.30;;;17.90;99.90;;;;;;7393176;19;20145;-76
2023/08/11 03:58:14;;;;;;;4.03;2.20;;;17.60;99.90;;;;;;7390042;19;20151;-75
2023/08/11 04:00:40;;;;;;;3.00;1.95;;;17.50;99.90;;;;;;7392021;19;20603;-76
2023/08/11 04:03:08;;;;;;;3.40;2.75;;;17.50;99.90;;;;;;7389396;19;20186;-75
2023/08/11 04:05:34;;;;;;;3.58;2.33;;;17.30;99.90;;;;;;7391247;19;20552;-77
2023/08/11 04:07:59;;;;;;;3.25;2.05;;;17.50;99.90;;;;;;7389687;19;20139;-76
2023/08/11 04:10:25;;;;;;;4.15;1.98;;;17.50;99.90;;;;;;7390058;19;20461;-76
2023/08/11 04:12:51;;;;;;;2.92;2.28;;;17.40;99.90;;;;;;7391824;19;20138;-77
2023/08/11 04:15:17;;;;;;;3.08;2.47;;;17.40;99.90;;;;;;7389920;19;20594;-76
2023/08/11 04:17:43;;;;;;;3.20;2.28;;;17.00;99.90;;;;;;7391402;19;20151;-77
2023/08/11 04:20:13;;;;;;;4.22;2.45;;;17.00;99.90;;;;;;7390109;19;20134;-77
2023/08/11 04:22:40;;;;;;;5.03;2.35;;;17.10;99.90;;;;;;7390880;19;21021;-75
2023/08/11 04:25:09;;;;;;;3.95;2.65;;;17.20;99.90;;;;;;7389810;19;20139;-76
2023/08/11 04:27:35;;;;;;;3.97;2.70;;;17.60;99.90;;;;;;7391219;19;20150;-77
2023/08/11 04:30:02;;;;;;;3.22;2.40;;;17.40;99.90;;;;;;7391000;19;20134;-76
2023/08/11 04:32:28;;;;;;;3.42;2.63;;;17.40;99.90;;;;;;7388834;19;20138;-77
2023/08/11 04:34:54;;;;;;;3.88;2.30;;;17.40;99.90;;;;;;7389965;19;20162;-75
2023/08/11 04:37:19;;;;;;;3.78;2.60;;;17.70;99.90;;;;;;7389330;19;20139;-77
2023/08/11 04:39:45;;;;;;;3.38;2.80;;;17.90;99.90;;;;;;7389927;19;20235;-77
2023/08/11 04:42:12;;;;;;;4.88;2.33;;;18.10;99.90;;;;;;7390248;19;20130;-77
2023/08/11 04:44:38;;;;;;;3.25;2.60;;;17.90;99.90;;;;;;7390003;19;20539;-77
2023/08/11 04:47:04;;;;;;;3.65;2.50;;;17.80;99.90;;;;;;7389667;19;20150;-77
2023/08/11 04:49:32;;;;;;;4.00;2.67;;;17.90;99.90;;;;;;7390321;19;20147;-77
2023/08/11 04:51:58;;;;;;;3.85;2.67;;;17.80;99.90;;;;;;7389558;19;20149;-76
2023/08/11 04:54:24;;;;;;;3.20;2.20;;;17.50;99.90;;;;;;7390249;19;20150;-76
2023/08/11 04:56:50;;;;;;;4.15;2.80;;;17.70;99.90;;;;;;7392151;19;20131;-77
2023/08/11 04:59:17;;;;;;;4.82;2.75;;;17.90;99.90;;;;;;7390983;19;20190;-77
2023/08/11 05:01:43;;;;;;;4.60;2.83;;;17.90;99.90;;;;;;7389441;19;20135;-78
2023/08/11 05:04:09;;;;;;;4.03;2.67;;;18.10;99.90;;;;;;7387504;19;20186;-76
2023/08/11 05:06:35;;;;;;;3.47;2.75;;;18.40;99.90;;;;;;7387982;19;20138;-78
2023/08/11 05:09:06;;;;;;;4.88;3.35;;;18.30;99.90;;;;;;7387123;19;20150;-80
2023/08/11 05:11:37;;;;;;;4.43;2.47;;;18.20;99.90;;;;;;7388932;19;20459;-79
2023/08/11 05:14:03;;;;;;;2.83;2.40;;;18.20;99.90;;;;;;7389321;19;20154;-79
2023/08/11 05:16:28;;;;;;;5.50;3.05;;;18.20;99.90;;;;;;7387809;19;20246;-79
2023/08/11 05:18:54;;;;;;;3.80;2.80;;;18.00;99.90;;;;;;7386434;19;20152;-80
2023/08/11 05:21:20;;;;;;;2.58;2.33;;;18.00;99.90;;;;;;7388868;19;20164;-80
2023/08/11 05:23:46;;;;;;;3.75;2.35;;;18.00;99.90;;;;;;7388555;19;20145;-75
2023/08/11 05:26:12;;;;;;;3.33;2.70;;;18.20;99.90;;;;;;7388218;19;20139;-76
2023/08/11 05:28:37;;;;;;;3.90;2.60;;;18.10;99.90;;;;;;7389711;19;20499;-77
2023/08/11 05:31:04;;;;;;;5.18;2.40;;;18.20;99.90;;;;;;7387736;19;20485;-78
2023/08/11 05:33:30;;;;;;;3.13;2.42;;;18.20;99.90;;;;;;7388902;19;20146;-76
2023/08/11 05:35:56;;;;;;;5.03;2.63;;;18.00;99.90;;;;;;7388990;19;20142;-76
2023/08/11 05:38:22;;;;;;;4.40;2.45;;;17.80;99.90;;;;;;7390895;19;20153;-77
2023/08/11 05:40:49;;;;;;;2.50;2.30;;;18.00;99.90;;;;;;7388746;19;20225;-77
2023/08/11 05:43:18;;;;;;;4.30;2.80;;;18.00;99.90;;;;;;7385135;19;20156;-76
2023/08/11 05:45:44;;;;;;;3.17;2.55;;;18.20;99.90;;;;;;7387368;19;20199;-76
2023/08/11 05:48:10;;;;;;;3.28;2.58;;;18.10;99.90;;;;;;7387525;19;20586;-77
2023/08/11 05:50:37;;;;;;;3.05;2.50;;;17.90;99.90;;;;;;7388031;19;20135;-75
2023/08/11 05:53:03;;;;;;;4.18;2.45;;;17.70;99.90;;;;;;7389041;19;20142;-76
2023/08/11 05:55:29;;;;;;;2.80;2.40;;;17.60;99.90;;;;;;7387246;19;20147;-78
2023/08/11 05:57:55;;;;;;;4.05;2.38;;;17.50;99.90;;;;;;7385949;19;20142;-74
2023/08/11 06:00:21;;;;;;;3.50;2.60;;;17.50;99.90;;;;;;7387315;19;20563;-75
2023/08/11 06:02:46;;;;;;;4.15;2.97;;;17.50;99.90;;;;;;7384552;19;20157;-75
2023/08/11 06:05:12;;;;;;;3.65;2.58;;;17.60;99.90;;;;;;7387137;19;20134;-74
2023/08/11 06:07:39;;;;;;;3.83;2.60;;;18.00;99.90;;;;;;7385401;19;20146;-77
2023/08/11 06:10:06;;;;;;;6.13;2.95;;;18.20;99.90;;;;;;7387702;19;20428;-75
2023/08/11 06:12:32;;;;;;;3.55;2.72;;;18.50;99.90;;;;;;7382688;19;20131;-76
2023/08/11 06:14:58;;;;;;;5.07;2.75;;;18.60;99.90;;;;;;7384304;19;20158;-76
2023/08/11 06:17:24;;;;;;;3.28;2.92;;;18.80;99.90;;;;;;7383257;19;20159;-77
2023/08/11 06:19:50;;;;;;;4.80;2.80;;;18.80;99.90;;;;;;7383729;19;20654;-76
2023/08/11 06:22:16;;;;;;;3.22;2.75;;;18.70;99.90;;;;;;7382818;19;20150;-75
2023/08/11 06:24:42;;;;;;;3.20;2.58;;;18.90;99.90;;;;;;7385945;19;20151;-76
2023/08/11 06:27:09;;;;;;;4.40;3.08;;;18.90;99.90;;;;;;7388144;19;20183;-80
2023/08/11 06:29:35;;;;;;;4.65;2.90;;;18.90;99.90;;;;;;7387364;19;20137;-77
2023/08/11 06:32:01;;;;;;;6.95;3.10;;;19.00;99.90;;;;;;7386477;19;20165;-77
2023/08/11 06:34:27;;;;;;;3.42;2.70;;;19.10;99.90;;;;;;7388762;19;20134;-77
2023/08/11 06:36:53;;;;;;;5.53;3.15;;;19.40;99.90;;;;;;7387742;19;20157;-77
2023/08/11 06:39:19;;;;;;;5.18;2.95;;;20.40;99.90;;;;;;7389038;19;20139;-77
2023/08/11 06:41:45;;;;;;;3.97;3.20;;;21.70;99.90;;;;;;7385834;19;20150;-79
2023/08/11 06:44:11;;;;;;;6.40;3.97;;;22.90;99.90;;;;;;7386580;19;20599;-78
2023/08/11 06:46:36;;;;;;;7.13;3.95;;;23.60;99.90;;;;;;7386930;19;20134;-79
2023/08/11 06:49:02;;;;;;;4.35;3.10;;;24.00;99.90;;;;;;7385469;19;20147;-79
2023/08/11 06:51:28;;;;;;;4.35;2.45;;;24.30;99.90;;;;;;7386558;19;20131;-79
2023/08/11 06:53:55;;;;;;;4.57;3.22;;;24.50;99.90;;;;;;7386726;19;20150;-78
2023/08/11 06:56:21;;;;;;;4.70;2.85;;;24.80;99.90;;;;;;7390728;19;20147;-78
2023/08/11 06:58:47;;;;;;;4.90;2.90;;;25.00;99.90;;;;;;7395133;19;20140;-77
2023/08/11 07:01:17;;;;;;;4.85;3.30;;;24.80;99.90;;;;;;7393904;19;20154;-77
2023/08/11 07:03:44;;;;;;;4.40;3.10;;;24.60;99.90;;;;;;7394617;19;20143;-78
2023/08/11 07:06:09;;;;;;;4.20;2.80;;;24.50;99.90;;;;;;7393832;19;20611;-72
2023/08/11 07:08:35;;;;;;;4.05;2.58;;;24.20;99.90;;;;;;7392258;19;20144;-71
2023/08/11 07:11:01;;;;;;;4.15;3.15;;;24.30;99.90;;;;;;7391174;19;20131;-71
2023/08/11 07:13:26;;;;;;;4.70;2.58;;;24.30;99.90;;;;;;7391349;19;20450;-72
2023/08/11 07:15:56;;;;;;;6.55;2.95;;;24.30;99.90;;;;;;7390648;19;20157;-72
2023/08/11 07:18:22;;;;;;;3.42;2.88;;;24.40;99.90;;;;;;7391598;19;20563;-72
2023/08/11 07:20:48;;;;;;;3.55;2.97;;;24.30;99.90;;;;;;7390164;19;20591;-73
2023/08/11 07:23:16;;;;;;;3.30;2.70;;;24.40;99.90;;;;;;7389903;19;20226;-72
2023/08/11 07:25:42;;;;;;;4.75;2.60;;;24.20;99.90;;;;;;7390695;19;20138;-72
2023/08/11 07:28:08;;;;;;;6.57;2.60;;;24.20;99.90;;;;;;7389318;19;20134;-74
2023/08/11 07:30:36;;;;;;;4.53;3.10;;;24.10;99.90;;;;;;7392671;19;20213;-74
2023/08/11 07:33:02;;;;;;;3.97;2.83;;;24.30;99.90;;;;;;7392093;19;20137;-73
2023/08/11 07:35:29;;;;;;;5.03;2.38;;;24.70;99.90;;;;;;7390487;19;20157;-73
2023/08/11 07:37:55;;;;;;;5.78;3.15;;;25.00;99.90;;;;;;7390383;19;20249;-73
2023/08/11 07:40:21;;;;;;;4.53;3.22;;;25.20;99.90;;;;;;7389711;19;20174;-73
2023/08/11 07:42:47;;;;;;;5.30;3.58;;;25.40;99.90;;;;;;7389729;19;20236;-74
2023/08/11 07:45:13;;;;;;;5.35;4.05;;;25.40;99.90;;;;;;7391877;19;20587;-72
2023/08/11 07:47:39;;;;;;;5.45;3.03;;;25.70;99.90;;;;;;7389113;19;20605;-74
2023/08/11 07:50:06;;;;;;;5.93;3.08;;;25.70;99.90;;;;;;7390799;19;20134;-73
2023/08/11 07:52:32;;;;;;;5.55;3.15;;;25.50;99.90;;;;;;7389063;19;20143;-74
2023/08/11 07:54:58;;;;;;;7.18;2.80;;;25.60;99.90;;;;;;7387094;19;20147;-72
2023/08/11 07:57:25;;;;;;;4.15;3.08;;;25.70;99.90;;;;;;7388924;19;20123;-73
2023/08/11 07:59:51;;;;;;;4.45;3.30;;;25.70;99.90;;;;;;7390412;19;20138;-72
2023/08/11 08:02:17;;;;;;;5.60;3.13;;;25.70;99.90;;;;;;7389279;19;20638;-74
2023/08/11 08:04:43;;;;;;;4.65;2.90;;;26.00;99.90;;;;;;7387485;19;20202;-71
2023/08/11 08:07:10;;;;;;;7.63;2.97;;;26.30;99.90;;;;;;7388955;19;20131;-75
2023/08/11 08:09:36;;;;;;;6.22;3.10;;;26.50;99.90;;;;;;7388103;19;20142;-74
2023/08/11 08:12:01;;;;;;;5.70;2.90;;;26.80;99.90;;;;;;7390168;19;20497;-75
2023/08/11 08:14:28;;;;;;;4.45;3.13;;;26.80;99.90;;;;;;7388137;19;20131;-75
2023/08/11 08:16:54;;;;;;;5.43;2.75;;;27.00;99.90;;;;;;7390588;19;20137;-73
2023/08/11 08:19:20;;;;;;;5.20;3.58;;;26.90;99.90;;;;;;7388274;19;20126;-75
2023/08/11 08:21:46;;;;;;;2.97;2.08;;;26.80;99.90;;;;;;7389399;19;20586;-74
2023/08/11 08:24:14;;;;;;;4.85;2.40;;;26.80;99.90;;;;;;7387911;19;20808;-74
2023/08/11 08:26:40;;;;;;;2.58;2.10;;;26.80;99.90;;;;;;7389266;19;20150;-75
2023/08/11 08:29:06;;;;;;;3.47;2.55;;;26.90;99.90;;;;;;7390056;19;20127;-75
2023/08/11 08:31:33;;;;;;;3.35;2.42;;;26.80;99.90;;;;;;7387488;19;20135;-75
2023/08/11 08:33:59;;;;;;;5.97;2.38;;;26.70;99.90;;;;;;7390732;19;20151;-73
2023/08/11 08:36:25;;;;;;;2.95;2.30;;;26.80;99.90;;;;;;7388173;19;20983;-75
2023/08/11 08:38:51;;;;;;;4.70;2.80;;;26.70;99.90;;;;;;7384592;19;20143;-75
2023/08/11 08:41:23;;;;;;;4.55;3.10;;;26.80;99.90;;;;;;7386693;19;20153;-74
2023/08/11 08:43:50;;;;;;;2.88;2.22;;;26.60;99.90;;;;;;7388153;19;20130;-75
2023/08/11 08:46:20;;;;;;;3.80;2.72;;;26.30;99.90;;;;;;7386057;19;20134;-74
2023/08/11 08:49:24;;;;;;;4.15;2.35;;;26.00;99.90;;;;;;7389701;19;20148;-75
2023/08/11 08:51:52;;;;;;;5.80;2.83;;;25.80;99.90;;;;;;7388764;19;20451;-75
2023/08/11 08:54:18;;;;;;;3.95;2.90;;;25.60;99.90;;;;;;7390693;19;20127;-74
2023/08/11 08:56:45;;;;;;;5.53;3.50;;;25.60;99.90;;;;;;7388730;19;20702;-75
2023/08/11 08:59:11;;;;;;;3.78;3.25;;;25.50;99.90;;;;;;7389103;19;20583;-74
2023/08/11 09:01:38;;;;;;;3.63;2.90;;;25.80;99.90;;;;;;7386835;19;20152;-75
2023/08/11 09:04:08;;;;;;;4.40;2.97;;;25.80;99.90;;;;;;7386254;19;20153;-73
2023/08/11 09:06:34;;;;;;;3.72;2.63;;;25.80;99.90;;;;;;7388248;19;20184;-74
2023/08/11 09:09:05;;;;;;;4.18;2.50;;;26.10;99.90;;;;;;7386873;19;20151;-74
2023/08/11 09:11:31;;;;;;;3.58;2.80;;;26.10;99.90;;;;;;7388280;19;20135;-75
2023/08/11 09:14:07;;;;;;;4.80;2.70;;;25.90;99.90;;;;;;7388529;19;20547;-75
2023/08/11 09:16:34;;;;;;;3.92;2.60;;;25.70;99.90;;;;;;7385599;19;20153;-76
2023/08/11 09:19:00;;;;;;;4.38;2.53;;;25.50;99.90;;;;;;7383352;19;20134;-75
2023/08/11 09:21:26;;;;;;;2.97;2.35;;;25.50;99.90;;;;;;7387433;19;20135;-75
2023/08/11 09:23:54;;;;;;;4.65;2.45;;;25.50;99.90;;;;;;7386394;19;20149;-75
2023/08/11 09:26:24;;;;;;;3.33;2.50;;;25.50;99.90;;;;;;7389434;19;20138;-75
2023/08/11 09:28:50;;;;;;;2.53;2.30;;;25.60;99.90;;;;;;7387961;19;20145;-75
2023/08/11 09:31:24;;;;;;;8.40;3.00;;;25.60;99.90;;;;;;7387774;19;20143;-75
2023/08/11 09:33:51;;;;;;;3.47;2.40;;;25.70;99.90;;;;;;7388817;19;20139;-75
2023/08/11 09:36:18;;;;;;;3.75;2.35;;;25.90;99.90;;;;;;7385968;19;20150;-76
2023/08/11 09:38:45;;;;;;;5.78;2.55;;;26.30;99.90;;;;;;7388083;19;20134;-75
2023/08/11 09:41:13;;;;;;;2.78;2.22;;;26.30;99.90;;;;;;7388424;19;20554;-76
2023/08/11 09:43:44;;;;;;;4.97;2.60;;;26.30;99.90;;;;;;7386442;19;20134;-76
2023/08/11 09:46:09;;;;;;;3.33;2.58;;;26.20;99.90;;;;;;7386550;19;20153;-77
2023/08/11 09:48:35;;;;;;;5.50;2.50;;;26.10;99.90;;;;;;7385367;19;20658;-75
2023/08/11 09:51:04;;;;;;;4.85;2.55;;;26.20;99.90;;;;;;7387497;19;20139;-76
2023/08/11 09:53:30;;;;;;;2.88;2.30;;;26.10;99.90;;;;;;7382562;19;20595;-76
2023/08/11 09:55:58;;;;;;;3.58;2.50;;;26.10;99.90;;;;;;7385865;19;20142;-76
2023/08/11 09:58:26;;;;;;;3.15;2.67;;;26.00;99.90;;;;;;7385061;19;20150;-76
2023/08/11 10:00:54;;;;;;;4.45;2.85;;;26.00;99.90;;;;;;7387726;19;20165;-77
2023/08/11 10:03:28;;;;;;;2.92;2.60;;;26.00;99.90;;;;;;7377937;19;20185;-77
2023/08/11 10:05:58;;;;;;;5.90;2.25;;;26.10;99.90;;;;;;7383684;19;20164;-77
2023/08/11 10:08:28;;;;;;;3.53;2.30;;;26.10;99.90;;;;;;7385465;19;20138;-78
2023/08/11 10:10:54;;;;;;;3.40;2.58;;;26.00;99.90;;;;;;7383561;19;20138;-76
2023/08/11 10:13:23;;;;;;;5.55;2.60;;;26.20;99.90;;;;;;7385609;19;20146;-76
2023/08/11 10:15:51;;;;;;;4.10;2.22;;;26.30;99.90;;;;;;7384415;19;20501;-75
2023/08/11 10:18:18;;;;;;;6.43;2.90;;;26.70;99.90;;;;;;7384458;19;20490;-77
2023/08/11 10:20:46;;;;;;;4.78;2.55;;;26.90;99.90;;;;;;7386008;19;20146;-76
2023/08/11 10:23:13;;;;;;;3.75;2.67;;;26.80;99.90;;;;;;7385400;19;20130;-76
2023/08/11 10:25:39;;;;;;;3.42;2.63;;;26.90;99.90;;;;;;7384203;19;20158;-75
2023/08/11 10:28:11;;;;;;;4.80;2.70;;;27.00;99.90;;;;;;7384944;19;20134;-76
2023/08/11 10:30:36;;;;;;;7.18;3.03;;;26.80;99.90;;;;;;7380202;19;20144;-75
2023/08/11 10:33:07;;;;;;;3.55;2.47;;;26.80;99.90;;;;;;7383891;19;20127;-76
2023/08/11 10:35:34;;;;;;;4.05;2.42;;;26.80;99.90;;;;;;7390876;19;20142;-76
2023/08/11 10:38:03;;;;;;;2.45;2.13;;;26.90;99.90;;;;;;7393510;19;20126;-77
2023/08/11 10:40:38;;;;;;;2.70;2.25;;;27.20;99.90;;;;;;7388620;19;20127;-77
2023/08/11 10:43:04;;;;;;;4.25;3.70;;;27.30;99.90;;;;;;7389389;19;20151;-76
2023/08/11 10:45:34;;;;;;;4.03;2.30;;;27.30;99.90;;;;;;7392005;19;20169;-76
2023/08/11 10:48:07;;;;;;;3.85;2.88;;;27.20;99.90;;;;;;7393047;19;20139;-76
2023/08/11 10:50:34;;;;;;;3.13;2.30;;;27.40;99.90;;;;;;7391440;19;20126;-76
2023/08/11 10:53:18;;;;;;;3.53;2.70;;;27.40;99.90;;;;;;7390877;19;20142;-76
2023/08/11 10:55:59;;;;;;;4.30;3.60;;;27.50;99.90;;;;;;7390644;19;20219;-76
2023/08/11 10:58:26;;;;;;;2.88;2.42;;;27.40;99.90;;;;;;7391036;19;20135;-76
2023/08/11 11:00:51;;;;;;;3.80;2.90;;;27.40;99.90;;;;;;7387695;19;20142;-76
2023/08/11 11:03:18;;;;;;;3.70;2.75;;;27.40;99.90;;;;;;7379388;19;20516;-77
2023/08/11 11:05:44;;;;;;;3.15;2.67;;;27.50;99.90;;;;;;7382563;19;20921;-77
2023/08/11 11:08:11;;;;;;;3.08;2.65;;;27.40;99.90;;;;;;7379157;19;20145;-76
2023/08/11 11:10:37;;;;;;;3.08;2.60;;;27.30;99.90;;;;;;7385873;19;20151;-75
2023/08/11 11:13:06;;;;;;;4.68;2.25;;;27.30;99.90;;;;;;7390336;19;20143;-76
2023/08/11 11:15:32;;;;;;;3.25;2.47;;;27.30;99.90;;;;;;7377024;19;20150;-77
2023/08/11 11:17:58;;;;;;;3.17;2.50;;;27.30;99.90;;;;;;7378597;19;20150;-76
2023/08/11 11:20:25;;;;;;;3.88;2.95;;;27.30;99.90;;;;;;7391550;19;20135;-77
2023/08/11 11:22:53;;;;;;;4.68;2.97;;;27.40;99.90;;;;;;7385857;19;20133;-76
2023/08/11 11:25:20;;;;;;;6.20;3.60;;;27.40;99.90;;;;;;7389768;19;20157;-76
2023/08/11 11:27:47;;;;;;;4.70;2.78;;;27.50;99.90;;;;;;7390781;19;20235;-73
2023/08/11 11:30:13;;;;;;;5.97;3.63;;;27.50;99.90;;;;;;7388510;19;20142;-75
2023/08/11 11:32:39;;;;;;;4.28;2.92;;;27.40;99.90;;;;;;7390348;19;20135;-75
2023/08/11 11:35:06;;;;;;;3.25;2.55;;;27.50;99.90;;;;;;7389794;19;20134;-75
2023/08/11 11:37:33;;;;;;;4.90;3.03;;;27.50;99.90;;;;;;7391146;19;20501;-75
2023/08/11 11:40:01;;;;;;;4.60;3.38;;;27.50;99.90;;;;;;7387642;19;20138;-75
2023/08/11 11:42:32;;;;;;;3.22;2.92;;;27.60;99.90;;;;;;7386168;19;20145;-75
2023/08/11 11:44:59;;;;;;;4.07;2.95;;;27.70;99.90;;;;;;7392414;19;20904;-76
2023/08/11 11:47:25;;;;;;;3.35;2.63;;;27.70;99.90;;;;;;7391134;19;20139;-75
2023/08/11 11:49:58;;;;;;;3.38;3.03;;;27.70;99.90;;;;;;7387511;19;20139;-75
2023/08/11 11:52:27;;;;;;;3.10;2.80;;;27.80;99.90;;;;;;7390477;19;20567;-74
2023/08/11 11:54:54;;;;;;;5.45;3.33;;;27.80;99.90;;;;;;7386372;19;20155;-75
2023/08/11 11:57:23;;;;;;;4.45;2.38;;;27.80;99.90;;;;;;7377108;19;20138;-74
2023/08/11 11:59:50;;;;;;;3.35;2.80;;;28.10;99.90;;;;;;7374924;19;20156;-75
2023/08/11 12:02:16;;;;;;;3.83;2.83;;;28.20;99.90;;;;;;7373117;19;20205;-75
2023/08/11 12:04:43;;;;;;;2.72;2.42;;;28.30;99.90;;;;;;7387585;19;20159;-76
2023/08/11 12:07:09;;;;;;;3.58;2.47;;;28.30;99.90;;;;;;7387120;19;20210;-76
2023/08/11 12:09:53;;;;;;;3.03;2.50;;;28.40;99.90;;;;;;7387864;19;20150;-76
2023/08/11 12:12:19;;;;;;;5.72;3.00;;;28.40;99.90;;;;;;7389043;19;20152;-76
2023/08/11 12:14:45;;;;;;;3.50;2.25;;;28.50;99.90;;;;;;7387409;19;20134;-76
2023/08/11 12:17:11;;;;;;;4.53;2.55;;;28.30;99.90;;;;;;7390650;19;20135;-76
2023/08/11 12:19:37;;;;;;;3.35;2.40;;;28.20;99.90;;;;;;7388274;19;20226;-76
2023/08/11 12:22:04;;;;;;;4.03;2.60;;;28.30;99.90;;;;;;7390009;19;20206;-77
2023/08/11 12:24:30;;;;;;;2.63;2.42;;;28.50;99.90;;;;;;7390322;19;20138;-75
2023/08/11 12:26:56;;;;;;;3.42;2.60;;;28.50;99.90;;;;;;7387519;19;20135;-75
2023/08/11 12:29:21;;;;;;;3.17;2.60;;;28.50;99.90;;;;;;7389727;19;20150;-76
2023/08/11 12:31:50;;;;;;;4.18;2.65;;;28.50;99.90;;;;;;7389701;19;20157;-76
2023/08/11 12:34:16;;;;;;;3.10;2.58;;;28.60;99.90;;;;;;7376163;19;20161;-76
2023/08/11 12:36:41;;;;;;;3.10;2.30;;;28.60;99.90;;;;;;7391340;19;20130;-77
2023/08/11 12:39:08;;;;;;;3.33;2.65;;;28.50;99.90;;;;;;7385588;19;20135;-76
2023/08/11 12:41:34;;;;;;;3.85;2.70;;;28.50;99.90;;;;;;7389007;19;20154;-75
2023/08/11 12:44:01;;;;;;;3.00;2.60;;;28.60;99.90;;;;;;7386477;19;20148;-76
2023/08/11 12:46:29;;;;;;;3.28;2.67;;;28.60;99.90;;;;;;7385689;19;20138;-76